createdAt,value
2018-02-25T00:00:50.879Z,-2.00
2018-02-25T00:02:53.985Z,-2.00
2018-02-25T00:04:56.638Z,-2.00
2018-02-25T00:06:59.293Z,-2.00
2018-02-25T00:09:02.742Z,-2.00
2018-02-25T00:11:05.381Z,-2.00
2018-02-25T00:13:08.042Z,-2.00
2018-02-25T00:15:11.540Z,-2.00
2018-02-25T00:17:14.960Z,-2.10
2018-02-25T00:19:17.623Z,-2.10
2018-02-25T00:21:20.328Z,-2.10
2018-02-25T00:23:22.983Z,-2.10
2018-02-25T00:25:25.639Z,-2.10
2018-02-25T00:27:29.091Z,-2.10
2018-02-25T00:29:31.743Z,-2.20
2018-02-25T00:31:34.396Z,-2.20
2018-02-25T00:33:37.064Z,-2.20
2018-02-25T00:35:40.484Z,-2.20
2018-02-25T00:37:43.120Z,-2.20
2018-02-25T00:39:46.621Z,-2.30
2018-02-25T00:41:50.065Z,-2.30
2018-02-25T00:43:52.828Z,-2.30
2018-02-25T00:45:55.512Z,-2.30
2018-02-25T00:47:58.163Z,-2.30
2018-02-25T00:50:00.838Z,-2.40
2018-02-25T00:52:03.576Z,-2.30
2018-02-25T00:54:06.230Z,-2.30
2018-02-25T00:56:08.984Z,-2.30
2018-02-25T00:58:11.640Z,-2.30
2018-02-25T01:00:15.045Z,-2.40
2018-02-25T01:02:17.782Z,-2.40
2018-02-25T01:04:20.600Z,-2.40
2018-02-25T01:06:23.270Z,-2.50
2018-02-25T01:08:25.967Z,-2.40
2018-02-25T01:10:28.632Z,-2.50
2018-02-25T01:12:31.278Z,-2.50
2018-02-25T01:14:34.748Z,-2.50
2018-02-25T01:16:37.394Z,-2.50
2018-02-25T01:18:40.044Z,-2.50
2018-02-25T01:20:42.713Z,-2.50
2018-02-25T01:22:46.121Z,-2.60
2018-02-25T01:24:48.778Z,-2.60
2018-02-25T01:26:52.227Z,-2.50
2018-02-25T01:28:54.874Z,-2.60
2018-02-25T01:30:57.532Z,-2.60
2018-02-25T01:33:00.969Z,-2.60
2018-02-25T01:35:03.652Z,-2.70
2018-02-25T01:37:06.315Z,-2.60
2018-02-25T01:39:09.203Z,-2.60
2018-02-25T01:41:11.854Z,-2.70
2018-02-25T01:43:14.512Z,-2.70
2018-02-25T01:45:17.184Z,-2.70
2018-02-25T01:47:20.605Z,-2.80
2018-02-25T01:49:23.270Z,-2.80
2018-02-25T01:51:25.968Z,-2.80
2018-02-25T01:53:28.628Z,-2.80
2018-02-25T01:55:31.291Z,-2.80
2018-02-25T01:57:34.022Z,-2.80
2018-02-25T01:59:36.669Z,-2.90
2018-02-25T02:01:39.330Z,-2.90
2018-02-25T02:03:42.004Z,-2.90
2018-02-25T02:05:44.657Z,-2.90
2018-02-25T02:07:48.089Z,-2.90
2018-02-25T02:09:50.782Z,-3.00
2018-02-25T02:11:53.552Z,-3.00
2018-02-25T02:13:56.235Z,-3.00
2018-02-25T02:15:58.887Z,-2.90
2018-02-25T02:18:01.546Z,-3.00
2018-02-25T02:20:04.241Z,-3.00
2018-02-25T02:22:06.922Z,-3.10
2018-02-25T02:24:09.573Z,-3.00
2018-02-25T02:26:12.237Z,-3.00
2018-02-25T02:28:15.657Z,-3.00
2018-02-25T02:30:18.307Z,-3.00
2018-02-25T02:32:21.753Z,-3.10
2018-02-25T02:34:24.418Z,-3.10
2018-02-25T02:36:27.061Z,-3.10
2018-02-25T02:38:29.744Z,-3.10
2018-02-25T02:40:32.398Z,-3.20
2018-02-25T02:42:35.847Z,-3.20
2018-02-25T02:44:38.516Z,-3.20
2018-02-25T02:46:41.176Z,-3.20
2018-02-25T02:48:43.861Z,-3.20
2018-02-25T02:50:46.519Z,-3.30
2018-02-25T02:52:49.236Z,-3.30
2018-02-25T02:54:51.913Z,-3.20
2018-02-25T02:56:54.580Z,-3.30
2018-02-25T02:58:57.237Z,-3.40
2018-02-25T03:00:59.916Z,-3.40
2018-02-25T03:03:02.573Z,-3.40
2018-02-25T03:05:05.234Z,-3.30
2018-02-25T03:07:08.674Z,-3.40
2018-02-25T03:09:11.572Z,-3.40
2018-02-25T03:11:14.344Z,-3.40
2018-02-25T03:13:17.013Z,-3.40
2018-02-25T03:15:19.652Z,-3.50
2018-02-25T03:17:22.319Z,-3.50
2018-02-25T03:19:25.811Z,-3.50
2018-02-25T03:21:29.242Z,-3.60
2018-02-25T03:23:31.894Z,-3.60
2018-02-25T03:25:34.666Z,-3.60
2018-02-25T03:27:37.342Z,-3.60
2018-02-25T03:29:39.996Z,-3.50
2018-02-25T03:31:42.674Z,-3.60
2018-02-25T03:33:46.208Z,-3.60
2018-02-25T03:35:48.941Z,-3.70
2018-02-25T03:37:51.620Z,-3.70
2018-02-25T03:39:54.293Z,-3.60
2018-02-25T03:41:56.967Z,-3.60
2018-02-25T03:43:59.658Z,-3.70
2018-02-25T03:46:03.221Z,-3.70
2018-02-25T03:48:05.890Z,-3.70
2018-02-25T03:50:08.580Z,-3.70
2018-02-25T03:52:11.251Z,-3.70
2018-02-25T03:54:13.937Z,-3.70
2018-02-25T03:56:16.625Z,-3.80
2018-02-25T03:58:19.257Z,-3.80
2018-02-25T04:00:21.942Z,-3.80
2018-02-25T04:02:24.590Z,-3.80
2018-02-25T04:04:27.314Z,-3.80
2018-02-25T04:06:29.982Z,-3.80
2018-02-25T04:08:32.621Z,-3.70
2018-02-25T04:10:35.350Z,-3.80
2018-02-25T04:12:38.014Z,-3.80
2018-02-25T04:14:40.657Z,-3.80
2018-02-25T04:16:43.322Z,-3.80
2018-02-25T04:18:46.017Z,-3.80
2018-02-25T04:20:48.663Z,-3.80
2018-02-25T04:22:51.321Z,-3.80
2018-02-25T04:24:54.786Z,-3.90
2018-02-25T04:26:57.439Z,-3.90
2018-02-25T04:29:00.104Z,-3.90
2018-02-25T04:31:02.826Z,-3.90
2018-02-25T04:33:05.464Z,-4.00
2018-02-25T04:35:08.136Z,-3.90
2018-02-25T04:37:10.781Z,-3.90
2018-02-25T04:39:14.306Z,-4.00
2018-02-25T04:41:16.999Z,-4.00
2018-02-25T04:43:19.659Z,-3.90
2018-02-25T04:45:22.325Z,-3.90
2018-02-25T04:47:25.035Z,-4.00
2018-02-25T04:49:27.712Z,-4.00
2018-02-25T04:51:30.370Z,-4.00
2018-02-25T04:53:33.040Z,-4.00
2018-02-25T04:55:35.710Z,-4.10
2018-02-25T04:57:38.408Z,-4.10
2018-02-25T04:59:41.086Z,-4.10
2018-02-25T05:01:43.768Z,-4.10
2018-02-25T05:03:46.513Z,-4.10
2018-02-25T05:05:49.171Z,-4.10
2018-02-25T05:07:52.604Z,-4.10
2018-02-25T05:09:55.345Z,-4.20
2018-02-25T05:11:57.965Z,-4.20
2018-02-25T05:14:00.650Z,-4.20
2018-02-25T05:16:03.504Z,-4.20
2018-02-25T05:18:06.290Z,-4.20
2018-02-25T05:20:08.985Z,-4.20
2018-02-25T05:22:11.648Z,-4.20
2018-02-25T05:24:14.324Z,-4.30
2018-02-25T05:26:17.038Z,-4.30
2018-02-25T05:28:19.691Z,-4.30
2018-02-25T05:30:22.352Z,-4.30
2018-02-25T05:32:25.049Z,-4.30
2018-02-25T05:34:27.702Z,-4.30
2018-02-25T05:36:30.359Z,-4.30
2018-02-25T05:38:33.050Z,-4.40
2018-02-25T05:40:35.699Z,-4.40
2018-02-25T05:42:38.386Z,-4.40
2018-02-25T05:44:41.041Z,-4.40
2018-02-25T05:46:44.552Z,-4.40
2018-02-25T05:48:47.254Z,-4.40
2018-02-25T05:50:49.913Z,-4.40
2018-02-25T05:52:52.567Z,-4.40
2018-02-25T05:54:55.228Z,-4.50
2018-02-25T05:56:58.703Z,-4.60
2018-02-25T05:59:01.369Z,-4.60
2018-02-25T06:01:04.063Z,-4.60
2018-02-25T06:03:06.739Z,-4.60
2018-02-25T06:05:09.404Z,-4.60
2018-02-25T06:07:12.093Z,-4.60
2018-02-25T06:09:14.737Z,-4.60
2018-02-25T06:11:17.381Z,-4.60
2018-02-25T06:13:20.075Z,-4.60
2018-02-25T06:15:22.742Z,-4.60
2018-02-25T06:17:25.430Z,-4.70
2018-02-25T06:19:28.097Z,-4.60
2018-02-25T06:21:30.783Z,-4.60
2018-02-25T06:23:33.454Z,-4.60
2018-02-25T06:25:36.127Z,-4.60
2018-02-25T06:27:38.783Z,-4.60
2018-02-25T06:29:41.438Z,-4.60
2018-02-25T06:31:44.934Z,-4.60
2018-02-25T06:33:48.355Z,-4.60
2018-02-25T06:35:51.000Z,-4.60
2018-02-25T06:37:54.433Z,-4.60
2018-02-25T06:39:57.103Z,-4.60
2018-02-25T06:41:59.754Z,-4.50
2018-02-25T06:44:03.206Z,-4.50
2018-02-25T06:46:05.931Z,-4.50
2018-02-25T06:48:08.602Z,-4.50
2018-02-25T06:50:11.409Z,-4.50
2018-02-25T06:52:14.053Z,-4.50
2018-02-25T06:54:17.486Z,-4.50
2018-02-25T06:56:20.164Z,-4.50
2018-02-25T06:58:22.826Z,-4.50
2018-02-25T07:00:25.601Z,-4.50
2018-02-25T07:02:28.278Z,-4.50
2018-02-25T07:04:31.012Z,-4.40
2018-02-25T07:06:33.704Z,-4.30
2018-02-25T07:08:37.137Z,-3.90
2018-02-25T07:10:40.301Z,-3.90
2018-02-25T07:12:42.968Z,-3.70
2018-02-25T07:14:48.429Z,-2.30
2018-02-25T07:16:51.069Z,-2.40
2018-02-25T07:18:53.786Z,-1.90
2018-02-25T07:20:56.424Z,-1.50
2018-02-25T07:22:59.104Z,-1.00
2018-02-25T07:25:02.554Z,-0.20
2018-02-25T07:27:05.489Z,-0.20
2018-02-25T07:29:09.036Z,0.60
2018-02-25T07:31:11.716Z,0.60
2018-02-25T07:33:14.372Z,0.60
2018-02-25T07:35:17.021Z,0.20
2018-02-25T07:37:19.744Z,0.90
2018-02-25T07:39:22.436Z,1.40
2018-02-25T07:41:25.398Z,0.50
2018-02-25T07:43:28.158Z,1.70
2018-02-25T07:45:30.811Z,2.00
2018-02-25T07:47:33.503Z,2.10
2018-02-25T07:49:36.204Z,2.70
2018-02-25T07:51:39.016Z,3.50
2018-02-25T07:53:41.706Z,1.70
2018-02-25T07:55:45.144Z,1.50
2018-02-25T07:57:48.971Z,1.50
2018-02-25T07:59:51.741Z,2.20
2018-02-25T08:01:54.445Z,2.70
2018-02-25T08:03:57.901Z,2.60
2018-02-25T08:06:00.585Z,2.50
2018-02-25T08:08:03.261Z,2.40
2018-02-25T08:10:06.018Z,3.30
2018-02-25T08:12:08.829Z,2.80
2018-02-25T08:14:12.291Z,2.90
2018-02-25T08:16:14.938Z,2.90
2018-02-25T08:18:20.344Z,4.10
2018-02-25T08:20:23.415Z,4.00
2018-02-25T08:22:26.161Z,3.70
2018-02-25T08:24:28.839Z,3.50
2018-02-25T08:26:31.475Z,3.30
2018-02-25T08:28:34.122Z,3.90
2018-02-25T08:30:37.550Z,3.60
2018-02-25T08:32:43.126Z,3.80
2018-02-25T08:34:45.918Z,3.80
2018-02-25T08:36:48.575Z,4.00
2018-02-25T08:38:51.244Z,4.70
2018-02-25T08:40:53.942Z,5.10
2018-02-25T08:42:56.603Z,4.20
2018-02-25T08:44:59.268Z,5.10
2018-02-25T08:47:02.789Z,6.10
2018-02-25T08:49:05.461Z,6.10
2018-02-25T08:51:08.108Z,5.90
2018-02-25T08:53:11.539Z,6.50
2018-02-25T08:55:14.244Z,6.50
2018-02-25T08:57:17.689Z,8.30
2018-02-25T08:59:20.377Z,8.20
2018-02-25T09:01:23.024Z,5.10
2018-02-25T09:03:26.589Z,6.00
2018-02-25T09:05:29.251Z,6.00
2018-02-25T09:07:31.906Z,4.80
2018-02-25T09:09:34.570Z,4.60
2018-02-25T09:11:37.225Z,6.30
2018-02-25T09:13:40.677Z,5.50
2018-02-25T09:15:43.371Z,5.50
2018-02-25T09:17:46.206Z,4.90
2018-02-25T09:19:48.899Z,5.30
2018-02-25T09:21:51.563Z,5.70
2018-02-25T09:23:55.375Z,6.90
2018-02-25T09:25:58.252Z,6.00
2018-02-25T09:28:00.890Z,8.00
2018-02-25T09:30:04.306Z,5.70
2018-02-25T09:32:07.127Z,5.70
2018-02-25T09:34:09.829Z,7.10
2018-02-25T09:36:12.602Z,5.50
2018-02-25T09:38:15.286Z,6.10
2018-02-25T09:40:19.221Z,6.90
2018-02-25T09:42:21.921Z,6.40
2018-02-25T09:44:24.870Z,5.80
2018-02-25T09:46:27.797Z,6.60
2018-02-25T09:48:30.476Z,6.40
2018-02-25T09:50:33.180Z,7.40
2018-02-25T09:52:35.846Z,6.90
2018-02-25T09:54:38.534Z,7.00
2018-02-25T09:56:41.206Z,6.90
2018-02-25T09:58:43.920Z,5.90
2018-02-25T10:00:47.433Z,7.70
2018-02-25T10:02:51.334Z,7.70
2018-02-25T10:04:54.842Z,6.50
2018-02-25T10:06:57.631Z,6.50
2018-02-25T10:09:00.515Z,6.70
2018-02-25T10:11:03.472Z,4.30
2018-02-25T10:13:06.118Z,5.80
2018-02-25T10:15:09.696Z,6.80
2018-02-25T10:17:12.373Z,6.80
2018-02-25T10:19:15.017Z,7.00
2018-02-25T10:21:17.732Z,7.10
2018-02-25T10:23:20.397Z,6.80
2018-02-25T10:25:23.240Z,7.20
2018-02-25T10:27:33.699Z,8.90
2018-02-25T10:29:36.601Z,8.00
2018-02-25T10:31:40.045Z,5.10
2018-02-25T10:33:43.538Z,3.00
2018-02-25T10:35:46.211Z,3.00
2018-02-25T10:37:50.350Z,2.00
2018-02-25T10:39:54.677Z,1.90
2018-02-25T10:41:58.211Z,1.20
2018-02-25T10:44:01.646Z,1.40
2018-02-25T10:46:04.497Z,1.40
2018-02-25T10:48:07.265Z,1.00
2018-02-25T10:50:09.918Z,0.90
2018-02-25T10:52:12.603Z,0.80
2018-02-25T10:54:16.187Z,0.30
2018-02-25T10:56:18.856Z,0.60
2018-02-25T10:58:29.359Z,0.80
2018-02-25T11:00:39.298Z,0.90
2018-02-25T11:02:41.945Z,0.90
2018-02-25T11:04:44.640Z,1.00
2018-02-25T11:06:47.445Z,0.40
2018-02-25T11:08:50.845Z,0.20
2018-02-25T11:10:54.307Z,0.50
2018-02-25T11:12:56.982Z,0.40
2018-02-25T11:14:59.848Z,0.50
2018-02-25T11:17:02.723Z,0.70
2018-02-25T11:19:08.067Z,0.70
2018-02-25T11:21:11.638Z,0.60
2018-02-25T11:23:14.315Z,0.50
2018-02-25T11:25:16.989Z,0.50
2018-02-25T11:27:19.647Z,0.40
2018-02-25T11:29:22.547Z,0.20
2018-02-25T11:31:25.345Z,0.30
2018-02-25T11:33:28.069Z,0.50
2018-02-25T11:35:31.658Z,0.40
2018-02-25T11:37:34.339Z,0.40
2018-02-25T11:39:37.774Z,0.60
2018-02-25T11:41:40.468Z,0.50
2018-02-25T11:43:43.120Z,0.20
2018-02-25T11:45:45.795Z,0.30
2018-02-25T11:47:48.547Z,0.50
2018-02-25T11:49:52.734Z,0.50
2018-02-25T11:51:55.449Z,0.40
2018-02-25T11:53:58.125Z,0.10
2018-02-25T11:56:00.807Z,0.50
2018-02-25T11:58:03.503Z,0.70
2018-02-25T12:00:06.160Z,0.60
2018-02-25T12:02:09.011Z,0.30
2018-02-25T12:04:12.461Z,0.30
2018-02-25T12:06:16.933Z,0.30
2018-02-25T12:08:19.610Z,0.10
2018-02-25T12:10:23.142Z,0.40
2018-02-25T12:12:27.719Z,0.40
2018-02-25T12:14:30.604Z,0.60
2018-02-25T12:16:34.053Z,0.30
2018-02-25T12:18:36.722Z,0.20
2018-02-25T12:20:39.408Z,0.50
2018-02-25T12:22:42.066Z,0.60
2018-02-25T12:24:44.768Z,0.30
2018-02-25T12:26:47.494Z,0.10
2018-02-25T12:28:50.297Z,0.40
2018-02-25T12:30:52.987Z,0.40
2018-02-25T12:32:55.654Z,0.60
2018-02-25T12:34:58.331Z,0.60
2018-02-25T12:37:00.975Z,0.50
2018-02-25T12:39:03.706Z,0.50
2018-02-25T12:41:06.414Z,0.40
2018-02-25T12:43:09.104Z,0.60
2018-02-25T12:45:12.583Z,0.40
2018-02-25T12:47:16.002Z,0.70
2018-02-25T12:49:18.651Z,0.70
2018-02-25T12:51:22.523Z,0.50
2018-02-25T12:53:25.181Z,0.50
2018-02-25T12:55:27.930Z,0.50
2018-02-25T12:57:30.798Z,0.40
2018-02-25T12:59:34.229Z,0.60
2018-02-25T13:01:36.888Z,0.50
2018-02-25T13:03:39.560Z,0.40
2018-02-25T13:05:42.334Z,0.50
2018-02-25T13:07:44.999Z,0.40
2018-02-25T13:09:47.655Z,0.70
2018-02-25T13:11:50.308Z,0.40
2018-02-25T13:13:52.947Z,0.40
2018-02-25T13:15:55.632Z,0.70
2018-02-25T13:17:58.269Z,0.60
2018-02-25T13:20:01.851Z,0.60
2018-02-25T13:22:06.035Z,0.60
2018-02-25T13:24:08.809Z,0.50
2018-02-25T13:26:11.465Z,0.70
2018-02-25T13:28:14.254Z,0.60
2018-02-25T13:30:16.941Z,0.40
2018-02-25T13:32:19.652Z,0.40
2018-02-25T13:34:22.395Z,0.40
2018-02-25T13:36:26.422Z,0.60
2018-02-25T13:38:29.231Z,0.60
2018-02-25T13:40:31.963Z,0.60
2018-02-25T13:42:34.617Z,0.70
2018-02-25T13:44:37.319Z,0.90
2018-02-25T13:46:39.964Z,0.80
2018-02-25T13:48:42.667Z,0.80
2018-02-25T13:50:45.343Z,0.60
2018-02-25T13:52:48.009Z,0.50
2018-02-25T13:54:50.704Z,0.50
2018-02-25T13:56:54.139Z,0.60
2018-02-25T13:58:57.558Z,0.60
2018-02-25T14:01:00.208Z,0.60
2018-02-25T14:03:03.629Z,0.80
2018-02-25T14:05:06.274Z,0.80
2018-02-25T14:07:10.549Z,0.50
2018-02-25T14:09:13.238Z,0.50
2018-02-25T14:11:15.869Z,0.60
2018-02-25T14:13:18.572Z,0.70
2018-02-25T14:15:21.226Z,0.60
2018-02-25T14:17:23.874Z,0.60
2018-02-25T14:19:27.342Z,0.50
2018-02-25T14:21:30.073Z,0.50
2018-02-25T14:23:32.737Z,0.70
2018-02-25T14:25:35.377Z,0.80
2018-02-25T14:27:38.022Z,0.80
2018-02-25T14:29:40.701Z,0.70
2018-02-25T14:31:43.347Z,0.60
2018-02-25T14:33:46.011Z,0.60
2018-02-25T14:35:48.749Z,0.60
2018-02-25T14:37:51.393Z,0.60
2018-02-25T14:39:54.065Z,0.60
2018-02-25T14:41:56.794Z,0.60
2018-02-25T14:44:00.261Z,0.60
2018-02-25T14:46:02.951Z,0.50
2018-02-25T14:48:05.591Z,0.50
2018-02-25T14:50:08.270Z,0.40
2018-02-25T14:52:10.969Z,0.40
2018-02-25T14:54:13.662Z,0.40
2018-02-25T14:56:16.375Z,0.40
2018-02-25T14:58:19.030Z,0.40
2018-02-25T15:00:22.494Z,0.40
2018-02-25T15:02:25.147Z,0.40
2018-02-25T15:04:27.848Z,0.30
2018-02-25T15:06:30.592Z,0.30
2018-02-25T15:08:33.234Z,0.30
2018-02-25T15:10:36.679Z,0.40
2018-02-25T15:12:39.367Z,0.40
2018-02-25T15:14:42.070Z,0.40
2018-02-25T15:16:45.489Z,0.40
2018-02-25T15:18:48.172Z,0.40
2018-02-25T15:20:50.905Z,0.30
2018-02-25T15:22:53.631Z,0.30
2018-02-25T15:27:06.082Z,0.20
2018-02-25T15:29:08.789Z,0.20
2018-02-25T15:31:11.711Z,0.20
2018-02-25T15:33:14.379Z,0.30
2018-02-25T15:35:17.050Z,0.30
2018-02-25T15:37:19.792Z,0.30
2018-02-25T15:39:22.519Z,0.20
2018-02-25T15:41:25.204Z,0.20
2018-02-25T15:43:27.867Z,0.20
2018-02-25T15:45:30.709Z,0.10
2018-02-25T15:47:34.157Z,0.10
2018-02-25T15:49:36.816Z,0.10
2018-02-25T15:51:39.495Z,0.10
2018-02-25T15:53:42.184Z,0.10
2018-02-25T15:55:44.817Z,0.10
2018-02-25T15:57:48.268Z,0.00
2018-02-25T15:59:50.946Z,0.00
2018-02-25T16:01:53.588Z,0.00
2018-02-25T16:03:57.462Z,-0.10
2018-02-25T16:06:00.893Z,-0.20
2018-02-25T16:08:03.664Z,-0.10
2018-02-25T16:10:06.322Z,-0.20
2018-02-25T16:12:09.795Z,-0.20
2018-02-25T16:14:12.503Z,-0.20
2018-02-25T16:16:15.157Z,-0.20
2018-02-25T16:18:18.615Z,-0.40
2018-02-25T16:20:21.318Z,-0.40
2018-02-25T16:22:24.321Z,-0.40
2018-02-25T16:24:27.018Z,-0.50
2018-02-25T16:26:30.014Z,-0.60
2018-02-25T16:28:32.683Z,-0.50
2018-02-25T16:30:35.341Z,-0.60
2018-02-25T16:32:37.986Z,-0.60
2018-02-25T16:34:40.703Z,-0.70
2018-02-25T16:36:43.360Z,-0.70
2018-02-25T16:38:46.900Z,-0.80
2018-02-25T16:40:50.382Z,-0.80
2018-02-25T16:42:54.591Z,-0.80
2018-02-25T16:44:57.262Z,-0.80
2018-02-25T16:46:59.908Z,-0.80
2018-02-25T16:49:03.386Z,-0.90
2018-02-25T16:51:06.048Z,-0.90
2018-02-25T16:53:08.707Z,-0.90
2018-02-25T16:55:11.428Z,-0.90
2018-02-25T16:57:14.891Z,-1.00
2018-02-25T16:59:17.570Z,-1.00
2018-02-25T17:01:20.237Z,-1.00
2018-02-25T17:03:22.918Z,-1.00
2018-02-25T17:05:25.588Z,-1.10
2018-02-25T17:07:28.296Z,-1.10
2018-02-25T17:09:31.109Z,-1.10
2018-02-25T17:11:34.462Z,-1.20
2018-02-25T17:13:37.117Z,-1.20
2018-02-25T17:15:39.855Z,-1.20
2018-02-25T17:17:42.527Z,-1.20
2018-02-25T17:19:45.230Z,-1.30
2018-02-25T17:21:47.994Z,-1.30
2018-02-25T17:23:50.752Z,-1.30
2018-02-25T17:25:54.210Z,-1.40
2018-02-25T17:27:56.904Z,-1.40
2018-02-25T17:29:59.577Z,-1.40
2018-02-25T17:32:02.213Z,-1.40
2018-02-25T17:34:04.876Z,-1.40
2018-02-25T17:36:07.556Z,-1.50
2018-02-25T17:38:10.406Z,-1.50
2018-02-25T17:40:13.890Z,-1.40
2018-02-25T17:42:17.350Z,-1.50
2018-02-25T17:44:20.130Z,-1.50
2018-02-25T17:46:22.815Z,-1.50
2018-02-25T17:48:25.522Z,-1.50
2018-02-25T17:50:28.946Z,-1.50
2018-02-25T17:52:31.691Z,-1.60
2018-02-25T17:54:35.109Z,-1.60
2018-02-25T17:56:37.879Z,-1.60
2018-02-25T17:58:41.592Z,-1.60
2018-02-25T18:00:44.295Z,-1.60
2018-02-25T18:02:46.985Z,-1.50
2018-02-25T18:04:49.736Z,-1.50
2018-02-25T18:06:52.403Z,-1.50
2018-02-25T18:09:01.867Z,-1.50
2018-02-25T18:11:04.613Z,-1.40
2018-02-25T18:13:07.281Z,-1.40
2018-02-25T18:15:10.785Z,-1.40
2018-02-25T18:17:13.473Z,-1.40
2018-02-25T18:19:16.117Z,-1.40
2018-02-25T18:21:19.573Z,-1.40
2018-02-25T18:23:22.249Z,-1.40
2018-02-25T18:25:24.902Z,-1.40
2018-02-25T18:27:27.585Z,-1.30
2018-02-25T18:29:30.253Z,-1.30
2018-02-25T18:31:32.890Z,-1.30
2018-02-25T18:33:36.347Z,-1.30
2018-02-25T18:35:39.018Z,-1.30
2018-02-25T18:37:41.698Z,-1.30
2018-02-25T18:39:44.373Z,-1.30
2018-02-25T18:41:47.017Z,-1.30
2018-02-25T18:43:49.671Z,-1.30
2018-02-25T18:45:52.353Z,-1.40
2018-02-25T18:47:55.014Z,-1.40
2018-02-25T18:49:58.423Z,-1.40
2018-02-25T18:52:01.115Z,-1.40
2018-02-25T18:54:03.810Z,-1.40
2018-02-25T18:56:06.489Z,-1.40
2018-02-25T18:58:09.185Z,-1.40
2018-02-25T19:00:12.015Z,-1.40
2018-02-25T19:02:14.658Z,-1.50
2018-02-25T19:04:18.096Z,-1.60
2018-02-25T19:06:20.960Z,-1.70
2018-02-25T19:08:23.620Z,-1.70
2018-02-25T19:10:26.311Z,-1.70
2018-02-25T19:12:28.998Z,-1.80
2018-02-25T19:14:31.664Z,-1.80
2018-02-25T19:16:34.381Z,-1.80
2018-02-25T19:18:37.035Z,-1.90
2018-02-25T19:20:39.800Z,-2.00
2018-02-25T19:22:42.482Z,-1.10
2018-02-25T19:24:45.378Z,-2.00
2018-02-25T19:26:48.147Z,-2.00
2018-02-25T19:28:50.838Z,-2.10
2018-02-25T19:30:54.270Z,-2.00
2018-02-25T19:32:58.836Z,-2.10
2018-02-25T19:35:01.615Z,-2.10
2018-02-25T19:37:10.117Z,-2.10
2018-02-25T19:39:18.516Z,-2.10
2018-02-25T19:41:26.825Z,-2.10
2018-02-25T19:43:29.497Z,-2.10
2018-02-25T19:45:32.205Z,-2.10
2018-02-25T19:47:34.953Z,-2.20
2018-02-25T19:49:37.745Z,-2.20
2018-02-25T19:51:40.525Z,-2.20
2018-02-25T19:53:43.184Z,-2.20
2018-02-25T19:55:45.858Z,-2.20
2018-02-25T19:57:48.604Z,-2.20
2018-02-25T19:59:51.967Z,-2.20
2018-02-25T20:01:54.818Z,-2.20
2018-02-25T20:03:57.607Z,-2.20
2018-02-25T20:06:00.279Z,-2.20
2018-02-25T20:08:02.938Z,-2.20
2018-02-25T20:10:06.079Z,-2.20
2018-02-25T20:12:08.782Z,-2.30
2018-02-25T20:14:11.497Z,-2.20
2018-02-25T20:16:14.245Z,-2.20
2018-02-25T20:18:17.653Z,-2.20
2018-02-25T20:20:20.356Z,-2.30
2018-02-25T20:22:23.016Z,-2.30
2018-02-25T20:24:25.664Z,-2.30
2018-02-25T20:26:29.214Z,-2.40
2018-02-25T20:28:31.959Z,-2.40
2018-02-25T20:30:34.641Z,-2.40
2018-02-25T20:32:37.318Z,-2.40
2018-02-25T20:34:40.000Z,-2.40
2018-02-25T20:36:42.686Z,-2.40
2018-02-25T20:38:45.365Z,-2.40
2018-02-25T20:40:48.048Z,-2.50
2018-02-25T20:42:50.727Z,-2.50
2018-02-25T20:44:53.415Z,-2.50
2018-02-25T20:46:56.108Z,-2.50
2018-02-25T20:48:58.836Z,-2.50
2018-02-25T20:51:01.477Z,-2.50
2018-02-25T20:53:04.924Z,-2.50
2018-02-25T20:55:07.600Z,-2.50
2018-02-25T20:57:10.322Z,-2.60
2018-02-25T20:59:13.939Z,-2.70
2018-02-25T21:01:16.608Z,-2.70
2018-02-25T21:03:20.027Z,-2.70
2018-02-25T21:05:22.713Z,-2.70
2018-02-25T21:07:25.927Z,-2.80
2018-02-25T21:09:28.863Z,-2.80
2018-02-25T21:11:31.579Z,-2.80
2018-02-25T21:13:34.250Z,-2.80
2018-02-25T21:15:37.790Z,-2.90
2018-02-25T21:17:41.240Z,-2.90
2018-02-25T21:19:44.879Z,-2.90
2018-02-25T21:21:48.830Z,-2.90
2018-02-25T21:23:51.633Z,-2.90
2018-02-25T21:25:54.276Z,-2.90
2018-02-25T21:27:56.923Z,-3.00
2018-02-25T21:30:00.386Z,-3.00
2018-02-25T21:32:03.045Z,-3.00
2018-02-25T21:34:05.990Z,-3.00
2018-02-25T21:36:08.867Z,-3.00
2018-02-25T21:38:11.933Z,-3.00
2018-02-25T21:40:14.721Z,-3.00
2018-02-25T21:42:18.173Z,-3.10
2018-02-25T21:44:20.987Z,-3.10
2018-02-25T21:46:24.455Z,-3.20
2018-02-25T21:48:27.150Z,-3.20
2018-02-25T21:50:30.838Z,-3.20
2018-02-25T21:52:33.577Z,-3.20
2018-02-25T21:54:41.995Z,-3.20
2018-02-25T21:56:50.457Z,-3.20
2018-02-25T21:58:59.837Z,-3.30
2018-02-25T22:01:08.399Z,-3.30
2018-02-25T22:03:16.877Z,-3.30
2018-02-25T22:05:19.557Z,-3.20
2018-02-25T22:07:22.220Z,-3.30
2018-02-25T22:09:25.077Z,-3.30
2018-02-25T22:11:27.693Z,-3.20
2018-02-25T22:13:30.622Z,-3.30
2018-02-25T22:15:34.050Z,-3.30
2018-02-25T22:17:36.730Z,-3.30
2018-02-25T22:19:39.466Z,-3.30
2018-02-25T22:21:42.885Z,-3.40
2018-02-25T22:23:45.573Z,-3.40
2018-02-25T22:25:48.789Z,-3.50
2018-02-25T22:27:52.063Z,-3.50
2018-02-25T22:29:54.750Z,-3.40
2018-02-25T22:31:57.702Z,-3.50
2018-02-25T22:34:00.398Z,-3.50
2018-02-25T22:36:03.036Z,-3.50
2018-02-25T22:38:05.763Z,-3.50
2018-02-25T22:40:08.456Z,-3.50
2018-02-25T22:42:11.124Z,-3.60
2018-02-25T22:44:13.917Z,-3.50
2018-02-25T22:46:16.579Z,-3.60
2018-02-25T22:48:20.386Z,-3.60
2018-02-25T22:50:23.066Z,-3.60
2018-02-25T22:52:25.812Z,-3.50
2018-02-25T22:54:28.862Z,-3.60
2018-02-25T22:56:31.753Z,-3.60
2018-02-25T22:58:34.442Z,-3.60
2018-02-25T23:00:37.274Z,-3.60
2018-02-25T23:02:40.776Z,-3.60
2018-02-25T23:04:44.241Z,-3.60
2018-02-25T23:06:46.898Z,-3.60
2018-02-25T23:08:49.535Z,-3.70
2018-02-25T23:10:52.285Z,-3.70
2018-02-25T23:12:55.795Z,-3.70
2018-02-25T23:14:59.202Z,-3.70
2018-02-25T23:17:02.146Z,-3.70
2018-02-25T23:19:04.791Z,-3.80
2018-02-25T23:21:07.775Z,-3.80
2018-02-25T23:23:10.503Z,-3.80
2018-02-25T23:25:13.233Z,-3.70
2018-02-25T23:27:15.895Z,-3.80
2018-02-25T23:29:18.795Z,-3.80
2018-02-25T23:31:21.542Z,-3.80
2018-02-25T23:33:24.234Z,-3.90
2018-02-25T23:35:26.869Z,-3.90
2018-02-25T23:37:30.371Z,-3.90
2018-02-25T23:39:33.127Z,-3.90
2018-02-25T23:41:35.784Z,-3.80
2018-02-25T23:43:38.512Z,-3.80
2018-02-25T23:45:41.176Z,-3.90
2018-02-25T23:47:44.610Z,-3.90
2018-02-25T23:49:47.286Z,-3.90
2018-02-25T23:51:49.935Z,-3.90
2018-02-25T23:53:52.645Z,-3.90
2018-02-25T23:55:55.391Z,-3.90
2018-02-25T23:57:58.094Z,-4.00
